History for Boise, ID


Lat: N 43 ° 36 ' 50 '' ( 43.614 ° )
Lon: W 116 ° 12 ' 14 '' ( -116.204 ° )

Elevation: 2847 ft
Data type:
Distance calculator

 
 

Select another date:

« Previous Day   |   Next Day »

Daily Statistics
  Current High Low Average
Temperature - 51.0 °F 36.0 °F 43.5 °F
Dew Point - 25.0 °F 22.0 °F 23.2 °F
Humidity % 60% 32% 42%
Wind Speed - 8.0mph - 3.8mph
Wind Gust - 13.0mph - -
Wind - - East
Pressure - 27.39in 27.36in -
Precipitation 0.00in      

Tabular Data for April 27, 2015
Time Temperature Dew Point Pressure Wind Wind Speed Wind Gust Humidity Hourly Precipitation
00:22 51.0 °F 22.0 °F 27.36in East 2.0mph 7.0mph 32% -99.99in
00:32 51.0 °F 22.0 °F 27.36in East 2.0mph 7.0mph 32% -99.99in
00:42 51.0 °F 22.0 °F 27.36in East 2.0mph 7.0mph 32% -99.99in
00:52 51.0 °F 22.0 °F 27.36in East 2.0mph 7.0mph 32% -99.99in
01:00 50.0 °F 22.0 °F 27.37in East 8.0mph 13.0mph 33% -99.99in
01:01 51.0 °F 22.0 °F 27.36in East 2.0mph 7.0mph 32% -99.99in
01:21 50.0 °F 22.0 °F 27.37in East 8.0mph 13.0mph 33% -99.99in
01:31 50.0 °F 22.0 °F 27.37in East 8.0mph 13.0mph 33% -99.99in
01:41 50.0 °F 22.0 °F 27.37in East 8.0mph 13.0mph 33% -99.99in
01:51 50.0 °F 22.0 °F 27.37in East 8.0mph 13.0mph 33% -99.99in
02:00 45.0 °F 25.0 °F 27.38in East 3.0mph 5.0mph 46% -99.99in
02:21 45.0 °F 25.0 °F 27.38in East 3.0mph 5.0mph 46% -99.99in
02:31 45.0 °F 25.0 °F 27.38in East 3.0mph 5.0mph 46% -99.99in
02:42 45.0 °F 25.0 °F 27.38in East 3.0mph 5.0mph 46% -99.99in
02:51 45.0 °F 25.0 °F 27.38in East 3.0mph 5.0mph 46% -99.99in
03:00 39.0 °F 24.0 °F 27.38in East 2.0mph 7.0mph 55% -99.99in
03:21 39.0 °F 24.0 °F 27.38in East 2.0mph 7.0mph 55% -99.99in
03:31 39.0 °F 24.0 °F 27.38in East 2.0mph 7.0mph 55% -99.99in
03:42 39.0 °F 24.0 °F 27.38in East 2.0mph 7.0mph 55% -99.99in
03:51 39.0 °F 24.0 °F 27.38in East 2.0mph 7.0mph 55% -99.99in
04:21 36.0 °F 23.0 °F 27.39in East 4.0mph 6.0mph 60% -99.99in

Powered by the Weather Underground, Inc.